createdAt,value
2019-01-08T00:03:56.178Z,2.10
2019-01-08T00:09:03.868Z,2.10
2019-01-08T00:14:10.867Z,2.10
2019-01-08T00:19:18.099Z,2.10
2019-01-08T00:24:24.215Z,2.10
2019-01-08T00:29:31.374Z,2.10
2019-01-08T00:34:37.212Z,2.10
2019-01-08T00:39:44.573Z,2.10
2019-01-08T00:44:50.498Z,2.00
2019-01-08T00:49:57.312Z,2.00
2019-01-08T00:55:05.384Z,1.90
2019-01-08T01:00:12.473Z,1.90
2019-01-08T01:05:18.565Z,1.90
2019-01-08T01:10:24.427Z,1.90
2019-01-08T01:15:31.079Z,1.80
2019-01-08T01:20:37.367Z,1.60
2019-01-08T01:25:45.142Z,1.60
2019-01-08T01:30:52.096Z,1.60
2019-01-08T01:35:59.892Z,1.50
2019-01-08T01:41:05.858Z,1.40
2019-01-08T01:46:11.742Z,1.40
2019-01-08T01:51:19.376Z,1.40
2019-01-08T01:56:25.355Z,1.20
2019-01-08T02:01:31.462Z,1.20
2019-01-08T02:06:40.032Z,1.10
2019-01-08T02:11:47.544Z,1.10
2019-01-08T02:16:54.718Z,1.10
2019-01-08T02:22:01.112Z,1.00
2019-01-08T02:27:07.305Z,1.00
2019-01-08T02:32:14.524Z,1.00
2019-01-08T02:37:21.709Z,1.00
2019-01-08T02:42:28.968Z,1.00
2019-01-08T02:47:34.951Z,1.10
2019-01-08T02:52:40.936Z,1.20
2019-01-08T02:57:47.897Z,1.30
2019-01-08T03:02:53.978Z,1.30
2019-01-08T03:08:00.025Z,1.40
2019-01-08T03:13:06.940Z,1.40
2019-01-08T03:18:14.220Z,1.50
2019-01-08T03:23:21.322Z,1.50
2019-01-08T03:28:28.519Z,1.40
2019-01-08T03:33:35.209Z,1.40
2019-01-08T03:38:41.816Z,1.30
2019-01-08T03:43:48.611Z,1.20
2019-01-08T03:48:55.692Z,1.10
2019-01-08T03:54:01.977Z,1.10
2019-01-08T03:59:08.838Z,1.10
2019-01-08T04:04:17.005Z,1.20
2019-01-08T04:09:23.528Z,1.20
2019-01-08T04:14:32.257Z,1.30
2019-01-08T04:19:39.549Z,1.30
2019-01-08T04:24:47.072Z,1.30
2019-01-08T04:29:54.088Z,1.20
2019-01-08T04:34:59.871Z,1.20
2019-01-08T04:40:07.416Z,1.20
2019-01-08T04:45:14.752Z,1.30
2019-01-08T04:50:20.858Z,1.30
2019-01-08T04:55:26.874Z,1.30
2019-01-08T05:00:35.296Z,1.30
2019-01-08T05:05:41.667Z,1.50
2019-01-08T05:10:50.677Z,1.60
2019-01-08T05:15:57.950Z,1.40
2019-01-08T05:21:05.390Z,1.30
2019-01-08T05:26:11.267Z,1.40
2019-01-08T05:31:17.446Z,1.50
2019-01-08T05:36:25.756Z,1.50
2019-01-08T05:41:31.593Z,1.50
2019-01-08T05:46:39.172Z,1.60
2019-01-08T05:51:48.069Z,1.70
2019-01-08T05:56:55.612Z,1.70
2019-01-08T06:02:03.778Z,1.80
2019-01-08T06:07:10.802Z,1.80
2019-01-08T06:12:18.480Z,1.80
2019-01-08T06:17:25.625Z,1.80
2019-01-08T06:22:32.583Z,1.70
2019-01-08T06:27:38.850Z,1.80
2019-01-08T06:32:45.706Z,1.80
2019-01-08T06:37:52.530Z,1.90
2019-01-08T06:42:59.692Z,1.90
2019-01-08T06:48:08.413Z,2.00
2019-01-08T06:53:17.512Z,2.10
2019-01-08T06:58:24.642Z,2.10
2019-01-08T07:03:31.804Z,2.10
2019-01-08T07:08:39.975Z,2.20
2019-01-08T07:13:49.024Z,2.20
2019-01-08T07:18:59.901Z,2.20
2019-01-08T07:24:32.166Z,2.10
2019-01-08T07:29:40.580Z,2.10
2019-01-08T07:34:50.611Z,2.20
2019-01-08T07:40:00.189Z,2.20
2019-01-08T07:45:06.387Z,2.10
2019-01-08T07:50:21.514Z,2.10
2019-01-08T07:55:29.723Z,2.10
2019-01-08T08:00:40.129Z,2.10
2019-01-08T08:05:48.201Z,2.10
2019-01-08T08:10:59.142Z,2.20
2019-01-08T08:16:07.989Z,2.20
2019-01-08T08:21:16.215Z,2.30
2019-01-08T08:26:24.825Z,2.40
2019-01-08T08:31:34.146Z,2.40
2019-01-08T08:36:41.509Z,2.50
2019-01-08T08:41:48.140Z,2.60
2019-01-08T08:46:55.460Z,2.70
2019-01-08T08:52:02.810Z,2.70
2019-01-08T08:57:10.210Z,2.80
2019-01-08T09:02:16.445Z,2.80
2019-01-08T09:07:23.546Z,2.80
2019-01-08T09:12:31.261Z,2.90
2019-01-08T09:17:38.875Z,3.00
2019-01-08T09:22:45.813Z,3.10
2019-01-08T09:27:52.945Z,3.20
2019-01-08T09:33:01.717Z,3.20
2019-01-08T09:38:08.787Z,3.30
2019-01-08T09:43:15.676Z,3.30
2019-01-08T09:48:23.147Z,3.30
2019-01-08T09:53:29.510Z,3.40
2019-01-08T09:58:36.602Z,3.40
2019-01-08T10:03:43.706Z,3.50
2019-01-08T10:08:50.851Z,3.40
2019-01-08T10:13:57.657Z,3.40
2019-01-08T10:19:05.142Z,3.30
2019-01-08T10:24:12.419Z,3.40
2019-01-08T10:29:18.843Z,3.50
2019-01-08T10:34:27.636Z,3.50
2019-01-08T10:39:35.219Z,3.40
2019-01-08T10:44:42.820Z,3.40
2019-01-08T10:49:49.545Z,3.50
2019-01-08T10:54:56.873Z,3.50
2019-01-08T11:00:04.469Z,3.40
2019-01-08T11:05:10.496Z,3.40
2019-01-08T11:10:16.573Z,3.50
2019-01-08T11:15:22.567Z,3.60
2019-01-08T11:20:29.567Z,3.70
2019-01-08T11:25:36.871Z,3.70
2019-01-08T11:30:44.337Z,3.70
2019-01-08T11:35:51.708Z,3.70
2019-01-08T11:40:59.551Z,3.70
2019-01-08T11:46:06.809Z,3.70
2019-01-08T11:51:12.804Z,3.80
2019-01-08T11:56:19.129Z,4.00
2019-01-08T12:01:25.056Z,4.00
2019-01-08T12:06:32.173Z,4.30
2019-01-08T12:11:38.277Z,4.50
2019-01-08T12:16:44.137Z,5.60
2019-01-08T12:21:50.358Z,5.10
2019-01-08T12:26:57.526Z,4.60
2019-01-08T12:32:06.224Z,4.30
2019-01-08T12:37:12.595Z,4.10
2019-01-08T12:42:19.404Z,4.10
2019-01-08T12:47:26.087Z,4.10
2019-01-08T12:52:32.794Z,3.90
2019-01-08T12:57:40.732Z,3.90
2019-01-08T13:02:46.722Z,4.00
2019-01-08T13:07:54.517Z,4.00
2019-01-08T13:13:01.950Z,4.20
2019-01-08T13:18:08.751Z,4.20
2019-01-08T13:23:16.262Z,4.30
2019-01-08T13:28:24.683Z,4.50
2019-01-08T13:33:31.285Z,4.50
2019-01-08T13:38:37.669Z,4.50
2019-01-08T13:43:43.768Z,4.50
2019-01-08T13:48:49.800Z,4.50
2019-01-08T13:53:56.091Z,4.60
2019-01-08T13:59:03.771Z,4.80
2019-01-08T14:04:09.767Z,4.70
2019-01-08T14:09:17.138Z,4.70
2019-01-08T14:14:24.888Z,4.60
2019-01-08T14:19:32.257Z,4.50
2019-01-08T14:24:40.042Z,4.60
2019-01-08T14:29:47.304Z,5.10
2019-01-08T14:34:55.152Z,5.10
2019-01-08T14:40:03.838Z,4.90
2019-01-08T14:45:09.999Z,4.70
2019-01-08T14:50:16.212Z,4.60
2019-01-08T14:55:22.241Z,4.40
2019-01-08T15:00:28.342Z,4.30
2019-01-08T15:05:35.273Z,4.20
2019-01-08T15:10:42.264Z,4.00
2019-01-08T15:15:51.930Z,4.00
2019-01-08T15:20:58.927Z,4.10
2019-01-08T15:26:06.212Z,4.20
2019-01-08T15:31:13.286Z,4.10
2019-01-08T15:36:20.926Z,4.00
2019-01-08T15:41:29.632Z,4.00
2019-01-08T15:46:36.071Z,3.90
2019-01-08T15:51:43.158Z,3.90
2019-01-08T15:56:50.267Z,3.80
2019-01-08T16:01:57.553Z,3.80
2019-01-08T16:07:08.008Z,3.80
2019-01-08T16:12:17.041Z,3.80
2019-01-08T16:17:23.949Z,3.90
2019-01-08T16:22:44.176Z,3.90
2019-01-08T16:27:51.268Z,3.90
2019-01-08T16:32:59.424Z,3.90
2019-01-08T16:38:06.456Z,4.00
2019-01-08T16:43:13.664Z,3.90
2019-01-08T16:48:19.943Z,3.90
2019-01-08T16:53:27.412Z,3.90
2019-01-08T16:58:34.591Z,3.90
2019-01-08T17:03:43.096Z,3.90
2019-01-08T17:08:49.211Z,3.90
2019-01-08T17:13:56.050Z,3.90
2019-01-08T17:19:03.345Z,4.00
2019-01-08T17:24:10.553Z,4.00
2019-01-08T17:29:16.567Z,4.00
2019-01-08T17:34:23.054Z,3.90
2019-01-08T17:39:30.536Z,3.90
2019-01-08T17:44:36.771Z,3.80
2019-01-08T17:49:44.375Z,3.90
2019-01-08T17:54:50.589Z,3.90
2019-01-08T17:59:57.077Z,3.90
2019-01-08T18:05:06.025Z,3.80
2019-01-08T18:10:12.335Z,3.70
2019-01-08T18:15:18.638Z,3.60
2019-01-08T18:20:25.084Z,3.70
2019-01-08T18:25:33.087Z,3.70
2019-01-08T18:30:46.102Z,3.60
2019-01-08T18:35:53.974Z,3.60
2019-01-08T18:41:02.687Z,3.60
2019-01-08T18:46:10.878Z,3.60
2019-01-08T18:51:18.070Z,3.60
2019-01-08T18:56:27.065Z,3.60
2019-01-08T19:01:34.989Z,3.50
2019-01-08T19:06:48.043Z,3.50
2019-01-08T19:11:54.544Z,3.50
2019-01-08T19:17:01.250Z,3.50
2019-01-08T19:22:08.002Z,3.50
2019-01-08T19:27:16.278Z,3.50
2019-01-08T19:32:23.079Z,3.50
2019-01-08T19:37:30.571Z,3.60
2019-01-08T19:42:38.885Z,3.50
2019-01-08T19:47:46.074Z,3.30
2019-01-08T19:52:53.791Z,3.20
2019-01-08T19:58:04.848Z,3.30
2019-01-08T20:03:11.360Z,3.20
2019-01-08T20:08:18.959Z,3.10
2019-01-08T20:13:26.511Z,3.00
2019-01-08T20:18:34.781Z,2.90
2019-01-08T20:23:41.254Z,2.90
2019-01-08T20:28:48.721Z,2.90
2019-01-08T20:33:56.819Z,2.90
2019-01-08T20:39:05.388Z,2.90
2019-01-08T20:44:11.931Z,2.90
2019-01-08T20:49:20.973Z,3.00
2019-01-08T20:54:28.716Z,3.00
2019-01-08T20:59:35.106Z,3.00
2019-01-08T21:04:41.093Z,3.00
2019-01-08T21:09:48.984Z,3.00
2019-01-08T21:14:55.303Z,2.90
2019-01-08T21:20:02.358Z,3.00
2019-01-08T21:25:09.487Z,3.00
2019-01-08T21:30:15.661Z,3.10
2019-01-08T21:35:21.767Z,3.10
2019-01-08T21:40:29.650Z,3.10
2019-01-08T21:45:36.209Z,3.10
2019-01-08T21:50:43.561Z,3.10
2019-01-08T21:55:51.375Z,3.00
2019-01-08T22:00:58.769Z,3.10
2019-01-08T22:06:05.751Z,3.10
2019-01-08T22:11:11.690Z,3.10
2019-01-08T22:16:19.850Z,3.20
2019-01-08T22:21:26.389Z,3.20
2019-01-08T22:26:33.940Z,3.20
2019-01-08T22:31:41.770Z,3.20
2019-01-08T22:36:48.767Z,3.10
2019-01-08T22:41:55.661Z,3.10
2019-01-08T22:47:04.328Z,3.10
2019-01-08T22:52:11.147Z,3.10
2019-01-08T22:57:19.662Z,3.20
2019-01-08T23:02:27.408Z,3.10
2019-01-08T23:07:34.310Z,3.00
2019-01-08T23:12:42.690Z,3.00
2019-01-08T23:17:51.817Z,3.10
2019-01-08T23:22:57.826Z,3.00
2019-01-08T23:28:05.301Z,3.00
2019-01-08T23:33:12.419Z,3.00
2019-01-08T23:38:19.806Z,2.90
2019-01-08T23:43:27.349Z,2.80
2019-01-08T23:48:34.953Z,2.80
2019-01-08T23:53:43.331Z,2.80
2019-01-08T23:58:50.773Z,2.80
